Killeen, Texas
Current Conditions -  °F | °C
As of 3:56 PM on Saturday 25 Oct 2014 (Local Time) from KHLR Reporting Station
Clear Clear  
Wind Chill: 89°   Ceiling: Unl
Heat Index: 89°   Visibility: 10mi
Dew Point: 58°   Wind: 5mph
Humidity: 35%   Direction: NA
Pressure: 30.09"   Gusts: NA
Location:  31.12°N, 97.73°W
Report Text: KHLR 252056Z VRB04KT 10SM CLR 32/14 A3009 RMK AO2 SLP210 T03170144 56020 $
Loading
Personal Weather Stations






























Interactive Weather Map New forecast layout! Learn more

10-Day Weather Forecast

Advertisements
Track Severe Weather on mobile